createdAt,value
2023-03-18T00:02:24.722Z,100200.19
2023-03-18T00:04:56.907Z,100194.13
2023-03-18T00:07:27.215Z,100193.97
2023-03-18T00:09:56.797Z,100194.59
2023-03-18T00:12:28.667Z,100189.28
2023-03-18T00:14:58.061Z,100190.75
2023-03-18T00:17:27.595Z,100179.00
2023-03-18T00:20:05.748Z,100182.69
2023-03-18T00:22:35.906Z,100191.13
2023-03-18T00:25:07.057Z,100190.75
2023-03-18T00:27:36.740Z,100186.59
2023-03-18T00:30:08.456Z,100183.31
2023-03-18T00:32:41.686Z,100177.44
2023-03-18T00:35:13.915Z,100177.00
2023-03-18T00:37:43.431Z,100182.97
2023-03-18T00:40:20.296Z,100186.59
2023-03-18T00:42:57.720Z,100182.31
2023-03-18T00:45:27.271Z,100174.44
2023-03-18T00:47:56.637Z,100171.78
2023-03-18T00:50:28.602Z,100169.31
2023-03-18T00:52:57.980Z,100171.03
2023-03-18T00:55:27.394Z,100175.34
2023-03-18T00:57:57.375Z,100165.97
2023-03-18T01:00:29.218Z,100171.72
2023-03-18T01:02:59.388Z,100166.78
2023-03-18T01:05:31.591Z,100167.69
2023-03-18T01:08:01.853Z,100176.28
2023-03-18T01:10:31.561Z,100177.81
2023-03-18T01:13:01.364Z,100177.44
2023-03-18T01:15:30.984Z,100178.47
2023-03-18T01:18:00.986Z,100171.34
2023-03-18T01:20:33.422Z,100177.78
2023-03-18T01:23:03.457Z,100171.03
2023-03-18T01:25:33.746Z,100165.75
2023-03-18T01:28:03.181Z,100172.88
2023-03-18T01:30:34.837Z,100161.38
2023-03-18T01:33:04.929Z,100161.31
2023-03-18T01:35:37.201Z,100169.28
2023-03-18T01:38:07.524Z,100168.03
2023-03-18T01:40:40.590Z,100172.56
2023-03-18T01:43:17.783Z,100173.16
2023-03-18T01:45:51.439Z,100166.75
2023-03-18T01:48:23.377Z,100167.28
2023-03-18T01:50:59.412Z,100160.38
2023-03-18T01:53:32.040Z,100161.03
2023-03-18T01:56:02.676Z,100151.56
2023-03-18T01:58:35.151Z,100156.00
2023-03-18T02:01:07.359Z,100162.25
2023-03-18T02:03:38.027Z,100167.50
2023-03-18T02:06:10.350Z,100162.34
2023-03-18T02:08:41.160Z,100175.69
2023-03-18T02:11:11.799Z,100172.34
2023-03-18T02:13:44.194Z,100177.81
2023-03-18T02:16:19.746Z,100178.03
2023-03-18T02:18:51.994Z,100176.66
2023-03-18T02:21:38.308Z,100183.47
2023-03-18T02:24:14.751Z,100187.84
2023-03-18T02:26:50.841Z,100194.97
2023-03-18T02:29:23.524Z,100195.06
2023-03-18T02:31:53.535Z,100191.81
2023-03-18T02:34:22.996Z,100196.91
2023-03-18T02:36:52.674Z,100201.88
2023-03-18T02:39:22.135Z,100210.53
2023-03-18T02:41:51.664Z,100210.06
2023-03-18T02:44:24.123Z,100222.00
2023-03-18T02:46:56.874Z,100230.56
2023-03-18T02:49:27.679Z,100217.84
2023-03-18T02:51:57.450Z,100222.38
2023-03-18T02:54:29.282Z,100213.84
2023-03-18T02:56:59.424Z,100228.69
2023-03-18T02:59:32.588Z,100216.44
2023-03-18T03:02:02.161Z,100215.44
2023-03-18T03:04:32.019Z,100221.72
2023-03-18T03:07:02.208Z,100219.09
2023-03-18T03:09:31.659Z,100221.56
2023-03-18T03:12:01.053Z,100223.16
2023-03-18T03:14:33.081Z,100236.28
2023-03-18T03:17:02.672Z,100244.72
2023-03-18T03:19:33.292Z,100241.19
2023-03-18T03:22:02.814Z,100251.38
2023-03-18T03:24:32.271Z,100261.53
2023-03-18T03:27:01.670Z,100263.09
2023-03-18T03:29:33.683Z,100275.06
2023-03-18T03:32:06.874Z,100293.97
2023-03-18T03:34:36.661Z,100307.28
2023-03-18T03:37:07.089Z,100329.50
2023-03-18T03:39:36.676Z,100335.44
2023-03-18T03:42:06.431Z,100348.38
2023-03-18T03:44:38.424Z,100353.34
2023-03-18T03:47:08.455Z,100356.25
2023-03-18T03:49:37.874Z,100360.38
2023-03-18T03:52:08.255Z,100346.56
2023-03-18T03:54:38.258Z,100347.56
2023-03-18T03:57:07.992Z,100350.72
2023-03-18T03:59:40.070Z,100359.13
2023-03-18T04:02:09.836Z,100367.53
2023-03-18T04:04:39.437Z,100381.72
2023-03-18T04:07:09.049Z,100400.34
2023-03-18T04:09:38.463Z,100410.44
2023-03-18T04:12:09.748Z,100417.28
2023-03-18T04:14:41.733Z,100428.47
2023-03-18T04:17:11.550Z,100439.63
2023-03-18T04:19:41.183Z,100443.06
2023-03-18T04:22:10.687Z,100461.16
2023-03-18T04:24:40.229Z,100457.78
2023-03-18T04:27:09.624Z,100468.88
2023-03-18T04:29:41.797Z,100467.25
2023-03-18T04:32:11.204Z,100471.47
2023-03-18T04:34:40.940Z,100478.34
2023-03-18T04:37:10.592Z,100486.91
2023-03-18T04:39:40.073Z,100474.97
2023-03-18T04:42:09.880Z,100481.88
2023-03-18T04:44:42.017Z,100468.22
2023-03-18T04:47:12.619Z,100478.78
2023-03-18T04:49:42.110Z,100475.22
2023-03-18T04:52:12.560Z,100474.38
2023-03-18T04:54:42.807Z,100478.78
2023-03-18T04:57:12.688Z,100478.88
2023-03-18T04:59:44.746Z,100480.38
2023-03-18T05:02:14.480Z,100500.84
2023-03-18T05:04:43.980Z,100517.16
2023-03-18T05:07:15.584Z,100521.56
2023-03-18T05:09:45.557Z,100524.94
2023-03-18T05:12:16.894Z,100531.72
2023-03-18T05:14:48.914Z,100543.78
2023-03-18T05:17:18.722Z,100559.13
2023-03-18T05:19:49.652Z,100567.75
2023-03-18T05:22:21.104Z,100566.13
2023-03-18T05:24:51.128Z,100556.91
2023-03-18T05:27:21.824Z,100549.31
2023-03-18T05:29:53.880Z,100573.31
2023-03-18T05:32:23.290Z,100568.91
2023-03-18T05:34:53.036Z,100570.88
2023-03-18T05:37:22.530Z,100583.59
2023-03-18T05:39:52.462Z,100577.72
2023-03-18T05:42:21.871Z,100589.63
2023-03-18T05:44:54.629Z,100592.22
2023-03-18T05:47:24.150Z,100593.78
2023-03-18T05:49:53.549Z,100589.72
2023-03-18T05:52:22.989Z,100598.22
2023-03-18T05:54:52.748Z,100611.84
2023-03-18T05:57:22.401Z,100611.78
2023-03-18T05:59:54.412Z,100622.00
2023-03-18T06:02:25.002Z,100620.53
2023-03-18T06:04:54.523Z,100634.25
2023-03-18T06:07:23.913Z,100630.94
2023-03-18T06:09:53.690Z,100638.63
2023-03-18T06:12:27.332Z,100649.03
2023-03-18T06:14:59.608Z,100658.25
2023-03-18T06:17:29.184Z,100665.22
2023-03-18T06:19:59.145Z,100672.66
2023-03-18T06:22:28.662Z,100671.38
2023-03-18T06:24:58.071Z,100674.78
2023-03-18T06:27:27.502Z,100674.94
2023-03-18T06:30:03.005Z,100680.38
2023-03-18T06:32:33.060Z,100671.56
2023-03-18T06:35:02.506Z,100675.81
2023-03-18T06:37:32.531Z,100679.19
2023-03-18T06:40:01.907Z,100675.59
2023-03-18T06:42:31.560Z,100674.66
2023-03-18T06:45:03.582Z,100675.72
2023-03-18T06:47:33.017Z,100680.88
2023-03-18T06:50:02.461Z,100680.28
2023-03-18T06:52:31.909Z,100680.50
2023-03-18T06:55:01.298Z,100684.00
2023-03-18T06:57:30.694Z,100685.53
2023-03-18T07:00:02.800Z,100688.31
2023-03-18T07:02:32.208Z,100689.41
2023-03-18T07:05:01.839Z,100684.28
2023-03-18T07:07:31.272Z,100691.28
2023-03-18T07:10:00.722Z,100692.09
2023-03-18T07:12:30.208Z,100686.22
2023-03-18T07:14:59.618Z,100700.75
2023-03-18T07:17:32.072Z,100700.19
2023-03-18T07:20:01.501Z,100709.00
2023-03-18T07:22:30.883Z,100707.44
2023-03-18T07:25:00.235Z,100710.28
2023-03-18T07:27:29.886Z,100714.63
2023-03-18T07:29:59.804Z,100704.69
2023-03-18T07:32:32.598Z,100703.16
2023-03-18T07:35:03.049Z,100697.41
2023-03-18T07:37:32.473Z,100699.25
2023-03-18T07:40:01.939Z,100695.38
2023-03-18T07:42:31.306Z,100683.97
2023-03-18T07:45:00.777Z,100691.72
2023-03-18T07:47:32.753Z,100693.53
2023-03-18T07:50:02.654Z,100693.63
2023-03-18T07:52:32.148Z,100682.50
2023-03-18T07:55:01.796Z,100676.59
2023-03-18T07:57:31.628Z,100672.72
2023-03-18T08:00:01.247Z,100674.56
2023-03-18T08:02:34.043Z,100681.31
2023-03-18T08:05:03.553Z,100676.38
2023-03-18T08:07:33.379Z,100678.97
2023-03-18T08:10:02.880Z,100673.72
2023-03-18T08:12:45.317Z,100674.78
2023-03-18T08:15:20.803Z,100668.63
2023-03-18T08:17:53.865Z,100661.94
2023-03-18T08:20:24.414Z,100664.53
2023-03-18T08:22:53.889Z,100668.81
2023-03-18T08:25:23.737Z,100677.56
2023-03-18T08:27:53.603Z,100667.31
2023-03-18T08:30:25.429Z,100677.63
2023-03-18T08:32:57.540Z,100670.56
2023-03-18T08:35:27.020Z,100674.78
2023-03-18T08:37:57.106Z,100677.41
2023-03-18T08:40:27.043Z,100683.53
2023-03-18T08:42:56.834Z,100694.59
2023-03-18T08:45:27.370Z,100692.69
2023-03-18T08:47:59.545Z,100696.22
2023-03-18T08:50:29.877Z,100692.84
2023-03-18T08:53:00.578Z,100697.09
2023-03-18T08:55:32.251Z,100711.63
2023-03-18T08:58:01.846Z,100720.94
2023-03-18T09:00:31.327Z,100724.38
2023-03-18T09:03:03.569Z,100726.94
2023-03-18T09:05:33.325Z,100736.13
2023-03-18T09:08:03.806Z,100751.66
2023-03-18T09:10:33.338Z,100741.22
2023-03-18T09:13:03.520Z,100750.50
2023-03-18T09:15:33.338Z,100760.09
2023-03-18T09:18:11.474Z,100766.72
2023-03-18T09:20:41.637Z,100781.97
2023-03-18T09:23:12.384Z,100786.91
2023-03-18T09:25:42.636Z,100794.72
2023-03-18T09:28:12.654Z,100803.25
2023-03-18T09:30:42.485Z,100830.66
2023-03-18T09:33:14.750Z,100818.59
2023-03-18T09:35:44.815Z,100827.41
2023-03-18T09:38:16.582Z,100829.31
2023-03-18T09:40:56.299Z,100825.72
2023-03-18T09:43:36.667Z,100831.97
2023-03-18T09:46:10.701Z,100833.72
2023-03-18T09:49:03.851Z,100827.84
2023-03-18T09:51:43.361Z,100835.78
2023-03-18T09:54:15.985Z,100839.44
2023-03-18T09:56:46.349Z,100836.88
2023-03-18T09:59:21.518Z,100832.06
2023-03-18T10:01:54.243Z,100833.00
2023-03-18T10:04:25.584Z,100827.03
2023-03-18T10:07:01.219Z,100829.22
2023-03-18T10:09:32.974Z,100825.81
2023-03-18T10:12:08.786Z,100821.94
2023-03-18T10:14:41.422Z,100814.56
2023-03-18T10:17:17.926Z,100813.53
2023-03-18T10:19:50.835Z,100809.19
2023-03-18T10:22:50.147Z,100796.25
2023-03-18T10:25:24.030Z,100785.66
2023-03-18T10:28:05.337Z,100775.13
2023-03-18T10:30:43.832Z,100757.41
2023-03-18T10:33:17.624Z,100744.53
2023-03-18T10:35:52.575Z,100739.13
2023-03-18T10:38:27.103Z,100744.50
2023-03-18T10:40:56.968Z,100736.00
2023-03-18T10:43:29.713Z,100719.84
2023-03-18T10:46:03.753Z,100715.25
2023-03-18T10:48:35.711Z,100709.13
2023-03-18T10:51:10.508Z,100692.66
2023-03-18T10:53:46.428Z,100678.25
2023-03-18T10:56:17.297Z,100664.56
2023-03-18T10:58:46.965Z,100665.50
2023-03-18T11:01:21.787Z,100650.53
2023-03-18T11:03:54.693Z,100626.47
2023-03-18T11:06:28.520Z,100631.94
2023-03-18T11:09:09.209Z,100635.06
2023-03-18T11:11:39.246Z,100636.31
2023-03-18T11:14:10.960Z,100624.38
2023-03-18T11:16:42.539Z,100614.59
2023-03-18T11:19:27.976Z,100608.66
2023-03-18T11:22:12.133Z,100606.59
2023-03-18T11:24:45.073Z,100585.59
2023-03-18T11:27:31.345Z,100594.34
2023-03-18T11:30:03.126Z,100593.50
2023-03-18T11:32:34.190Z,100583.69
2023-03-18T11:35:05.360Z,100575.53
2023-03-18T11:37:36.556Z,100558.31
2023-03-18T11:40:19.506Z,100557.66
2023-03-18T11:42:50.479Z,100548.06
2023-03-18T11:45:34.295Z,100532.06
2023-03-18T11:48:04.789Z,100510.53
2023-03-18T11:50:42.133Z,100503.09
2023-03-18T11:53:17.128Z,100489.41
2023-03-18T11:55:52.704Z,100479.69
2023-03-18T11:58:55.452Z,100476.75
2023-03-18T12:01:32.898Z,100482.50
2023-03-18T12:04:20.591Z,100479.16
2023-03-18T12:06:57.689Z,100486.88
2023-03-18T12:09:32.012Z,100485.38
2023-03-18T12:12:16.636Z,100492.00
2023-03-18T12:14:49.839Z,100493.91
2023-03-18T12:17:32.854Z,100500.19
2023-03-18T12:20:19.707Z,100493.31
2023-03-18T12:23:06.591Z,100498.88
2023-03-18T12:25:52.776Z,100502.31
2023-03-18T12:28:33.644Z,100509.59
2023-03-18T12:31:15.807Z,100521.00
2023-03-18T12:33:55.203Z,100512.81
2023-03-18T12:36:36.282Z,100516.41
2023-03-18T12:39:31.052Z,100516.25
2023-03-18T12:42:04.919Z,100505.84
2023-03-18T12:44:48.556Z,100512.81
2023-03-18T12:47:20.996Z,100510.00
2023-03-18T12:49:53.408Z,100504.22
2023-03-18T12:52:30.231Z,100515.41
2023-03-18T12:55:04.552Z,100508.03
2023-03-18T12:57:40.697Z,100525.47
2023-03-18T13:00:23.920Z,100530.75
2023-03-18T13:03:06.133Z,100529.91
2023-03-18T13:05:42.839Z,100529.25
2023-03-18T13:08:29.195Z,100532.50
2023-03-18T13:11:07.529Z,100538.41
2023-03-18T13:13:38.361Z,100533.69
2023-03-18T13:16:10.955Z,100546.56
2023-03-18T13:18:43.547Z,100548.41
2023-03-18T13:21:17.096Z,100554.41
2023-03-18T13:24:09.305Z,100569.22
2023-03-18T13:26:53.037Z,100571.72
2023-03-18T13:29:27.336Z,100559.22
2023-03-18T13:32:04.727Z,100566.00
2023-03-18T13:35:13.391Z,100561.84
2023-03-18T13:38:05.265Z,100549.53
2023-03-18T13:40:43.584Z,100543.97
2023-03-18T13:43:15.626Z,100530.09
2023-03-18T13:45:47.852Z,100521.47
2023-03-18T13:48:21.139Z,100516.19
2023-03-18T13:50:51.729Z,100519.50
2023-03-18T13:53:28.002Z,100514.34
2023-03-18T13:56:05.276Z,100521.28
2023-03-18T13:58:37.435Z,100517.22
2023-03-18T14:01:18.941Z,100519.72
2023-03-18T14:04:07.756Z,100518.94
2023-03-18T14:06:59.508Z,100518.41
2023-03-18T14:09:39.230Z,100528.75
2023-03-18T14:12:24.092Z,100565.81
2023-03-18T14:15:06.583Z,100574.75
2023-03-18T14:17:45.908Z,100575.56
2023-03-18T14:20:25.119Z,100568.44
2023-03-18T14:22:56.128Z,100563.91
2023-03-18T14:25:41.782Z,100561.47
2023-03-18T14:28:29.527Z,100553.50
2023-03-18T14:31:16.368Z,100554.94
2023-03-18T14:33:54.556Z,100553.88
2023-03-18T14:36:48.067Z,100540.66
2023-03-18T14:39:20.616Z,100539.97
2023-03-18T14:41:52.420Z,100534.56
2023-03-18T14:44:24.918Z,100546.66
2023-03-18T14:47:01.884Z,100548.13
2023-03-18T14:49:46.727Z,100547.22
2023-03-18T14:52:28.456Z,100542.09
2023-03-18T14:54:59.969Z,100539.22
2023-03-18T14:57:29.619Z,100533.88
2023-03-18T15:00:01.894Z,100539.63
2023-03-18T15:02:35.668Z,100536.00
2023-03-18T15:05:06.556Z,100538.25
2023-03-18T15:07:39.898Z,100532.88
2023-03-18T15:10:13.251Z,100542.22
2023-03-18T15:12:43.123Z,100543.13
2023-03-18T15:15:17.710Z,100559.97
2023-03-18T15:17:49.184Z,100573.94
2023-03-18T15:20:19.508Z,100569.38
2023-03-18T15:22:51.685Z,100548.06
2023-03-18T15:25:23.298Z,100547.06
2023-03-18T15:27:52.744Z,100540.69
2023-03-18T15:30:30.990Z,100535.44
2023-03-18T15:33:08.176Z,100526.72
2023-03-18T15:35:38.494Z,100526.63
2023-03-18T15:38:20.726Z,100533.59
2023-03-18T15:40:52.904Z,100532.75
2023-03-18T15:43:31.064Z,100537.94
2023-03-18T15:46:02.773Z,100534.56
2023-03-18T15:48:36.126Z,100536.19
2023-03-18T15:51:07.756Z,100528.50
2023-03-18T15:53:47.872Z,100526.16
2023-03-18T15:56:20.950Z,100529.81
2023-03-18T15:59:00.719Z,100533.41
2023-03-18T16:01:30.155Z,100534.50
2023-03-18T16:04:00.670Z,100540.28
2023-03-18T16:06:34.352Z,100540.28
2023-03-18T16:09:17.192Z,100536.06
2023-03-18T16:11:48.476Z,100542.22
2023-03-18T16:14:19.365Z,100545.78
2023-03-18T16:16:48.901Z,100544.72
2023-03-18T16:19:19.472Z,100546.22
2023-03-18T16:21:48.861Z,100537.56
2023-03-18T16:24:20.990Z,100538.44
2023-03-18T16:26:54.105Z,100539.34
2023-03-18T16:29:28.619Z,100538.28
2023-03-18T16:31:58.305Z,100553.69
2023-03-18T16:34:27.959Z,100548.47
2023-03-18T16:36:57.615Z,100538.09
2023-03-18T16:39:36.192Z,100544.94
2023-03-18T16:42:06.976Z,100555.09
2023-03-18T16:44:38.087Z,100557.59
2023-03-18T16:47:07.927Z,100552.44
2023-03-18T16:49:37.508Z,100554.25
2023-03-18T16:52:07.376Z,100557.59
2023-03-18T16:54:39.377Z,100558.44
2023-03-18T16:57:10.122Z,100554.94
2023-03-18T16:59:40.493Z,100558.19
2023-03-18T17:02:31.735Z,100552.91
2023-03-18T17:05:01.596Z,100556.25
2023-03-18T17:07:33.570Z,100551.00
2023-03-18T17:10:06.371Z,100562.22
2023-03-18T17:12:35.808Z,100557.69
2023-03-18T17:15:05.960Z,100573.91
2023-03-18T17:17:36.833Z,100580.50
2023-03-18T17:20:11.563Z,100583.09
2023-03-18T17:22:41.064Z,100581.22
2023-03-18T17:25:13.680Z,100582.75
2023-03-18T17:27:47.229Z,100578.13
2023-03-18T17:30:21.546Z,100596.28
2023-03-18T17:32:52.040Z,100593.84
2023-03-18T17:35:24.227Z,100596.34
2023-03-18T17:37:54.633Z,100596.34
2023-03-18T17:40:28.923Z,100595.31
2023-03-18T17:42:58.449Z,100602.06
2023-03-18T17:45:32.247Z,100608.75
2023-03-18T17:48:16.450Z,100611.97
2023-03-18T17:50:46.447Z,100615.75
2023-03-18T17:53:27.294Z,100617.56
2023-03-18T17:55:59.738Z,100621.22
2023-03-18T17:58:31.971Z,100621.66
2023-03-18T18:01:07.904Z,100631.25
2023-03-18T18:03:38.830Z,100630.84
2023-03-18T18:06:10.133Z,100633.50
2023-03-18T18:08:40.276Z,100637.63
2023-03-18T18:11:20.500Z,100639.97
2023-03-18T18:13:50.400Z,100638.22
2023-03-18T18:16:19.965Z,100650.16
2023-03-18T18:18:50.127Z,100657.59
2023-03-18T18:21:21.384Z,100673.03
2023-03-18T18:23:51.336Z,100675.72
2023-03-18T18:26:24.150Z,100676.66
2023-03-18T18:28:54.477Z,100676.53
2023-03-18T18:31:25.700Z,100681.72
2023-03-18T18:33:55.856Z,100680.91
2023-03-18T18:36:28.088Z,100672.53
2023-03-18T18:38:57.561Z,100669.09
2023-03-18T18:41:29.949Z,100672.09
2023-03-18T18:43:59.316Z,100679.47
2023-03-18T18:46:29.352Z,100683.47
2023-03-18T18:48:58.800Z,100690.72
2023-03-18T18:51:28.330Z,100695.56
2023-03-18T18:53:57.979Z,100707.31
2023-03-18T18:56:34.134Z,100715.97
2023-03-18T18:59:05.249Z,100718.47
2023-03-18T19:01:34.607Z,100723.03
2023-03-18T19:04:05.142Z,100717.03
2023-03-18T19:06:35.462Z,100723.94
2023-03-18T19:09:05.972Z,100722.28
2023-03-18T19:11:38.177Z,100725.69
2023-03-18T19:14:21.843Z,100726.06
2023-03-18T19:16:51.576Z,100721.53
2023-03-18T19:19:23.205Z,100724.97
2023-03-18T19:21:52.741Z,100726.50
2023-03-18T19:24:30.594Z,100728.06
2023-03-18T19:27:04.170Z,100730.41
2023-03-18T19:29:34.099Z,100735.44
2023-03-18T19:32:03.904Z,100745.69
2023-03-18T19:34:35.334Z,100755.06
2023-03-18T19:37:07.929Z,100749.03
2023-03-18T19:39:38.188Z,100742.03
2023-03-18T19:42:15.111Z,100744.50
2023-03-18T19:44:45.486Z,100750.56
2023-03-18T19:47:20.937Z,100748.03
2023-03-18T19:49:50.392Z,100755.66
2023-03-18T19:52:21.972Z,100752.25
2023-03-18T19:54:52.180Z,100743.63
2023-03-18T19:57:27.416Z,100740.97
2023-03-18T19:59:59.029Z,100740.84
2023-03-18T20:02:31.838Z,100745.00
2023-03-18T20:05:02.960Z,100739.69
2023-03-18T20:07:34.138Z,100753.50
2023-03-18T20:10:03.585Z,100751.50
2023-03-18T20:12:38.013Z,100755.59
2023-03-18T20:15:08.282Z,100756.75
2023-03-18T20:17:40.425Z,100766.00
2023-03-18T20:20:16.467Z,100766.00
2023-03-18T20:22:48.411Z,100771.03
2023-03-18T20:25:23.163Z,100781.09
2023-03-18T20:27:56.566Z,100791.19
2023-03-18T20:30:28.799Z,100804.28
2023-03-18T20:33:00.018Z,100819.72
2023-03-18T20:35:32.142Z,100867.25
2023-03-18T20:38:03.595Z,100862.47
2023-03-18T20:40:34.165Z,100877.06
2023-03-18T20:43:06.230Z,100875.47
2023-03-18T20:45:35.963Z,100878.63
2023-03-18T20:48:05.530Z,100880.38
2023-03-18T20:50:35.027Z,100876.38
2023-03-18T20:53:05.074Z,100874.69
2023-03-18T20:55:36.424Z,100876.44
2023-03-18T20:58:09.387Z,100879.34
2023-03-18T21:00:38.855Z,100880.41
2023-03-18T21:03:12.940Z,100872.53
2023-03-18T21:05:42.496Z,100872.53
2023-03-18T21:08:12.145Z,100866.47
2023-03-18T21:10:42.468Z,100863.38
2023-03-18T21:13:29.614Z,100854.09
2023-03-18T21:15:59.844Z,100846.72
2023-03-18T21:18:29.712Z,100839.66
2023-03-18T21:20:59.337Z,100841.31
2023-03-18T21:23:31.795Z,100842.13
2023-03-18T21:26:02.068Z,100840.41
2023-03-18T21:28:34.386Z,100840.31
2023-03-18T21:31:04.916Z,100842.88
2023-03-18T21:33:35.615Z,100829.97
2023-03-18T21:36:06.645Z,100835.47
2023-03-18T21:38:37.133Z,100822.31
2023-03-18T21:41:08.177Z,100822.16
2023-03-18T21:43:41.370Z,100819.25
2023-03-18T21:46:15.248Z,100820.72
2023-03-18T21:48:44.769Z,100822.28
2023-03-18T21:51:37.567Z,100824.13
2023-03-18T21:54:08.638Z,100817.88
2023-03-18T21:56:38.013Z,100822.13
2023-03-18T21:59:10.044Z,100818.50
2023-03-18T22:01:39.527Z,100817.47
2023-03-18T22:04:09.163Z,100821.75
2023-03-18T22:06:38.604Z,100818.25
2023-03-18T22:09:08.721Z,100823.13
2023-03-18T22:11:38.189Z,100827.22
2023-03-18T22:14:11.813Z,100821.94
2023-03-18T22:16:41.234Z,100827.84
2023-03-18T22:19:13.223Z,100828.66
2023-03-18T22:21:42.679Z,100829.28
2023-03-18T22:24:15.824Z,100837.50
2023-03-18T22:26:45.322Z,100833.34
2023-03-18T22:29:17.901Z,100842.94
2023-03-18T22:31:47.375Z,100841.75
2023-03-18T22:34:23.680Z,100857.88
2023-03-18T22:36:53.072Z,100853.09
2023-03-18T22:39:22.486Z,100850.94
2023-03-18T22:41:51.902Z,100844.22
2023-03-18T22:44:26.225Z,100843.31
2023-03-18T22:46:55.823Z,100834.91
2023-03-18T22:49:25.420Z,100829.97
2023-03-18T22:51:54.810Z,100843.25
2023-03-18T22:54:26.265Z,100858.22
2023-03-18T22:56:57.783Z,100881.44
2023-03-18T22:59:31.035Z,100893.50
2023-03-18T23:02:01.793Z,100897.31
2023-03-18T23:04:31.944Z,100901.72
2023-03-18T23:07:01.543Z,100899.22
2023-03-18T23:09:31.689Z,100907.94
2023-03-18T23:12:01.110Z,100924.88
2023-03-18T23:14:33.459Z,100924.06
2023-03-18T23:17:02.862Z,100934.16
2023-03-18T23:19:32.480Z,100941.25
2023-03-18T23:22:01.872Z,100950.75
2023-03-18T23:24:31.656Z,100948.09
2023-03-18T23:27:01.025Z,100945.38
2023-03-18T23:29:33.068Z,100954.50
2023-03-18T23:32:02.508Z,100967.25
2023-03-18T23:34:31.905Z,100969.53
2023-03-18T23:37:01.332Z,100972.75
2023-03-18T23:39:31.205Z,100979.75
2023-03-18T23:42:00.666Z,100972.03
2023-03-18T23:44:32.853Z,100976.72
2023-03-18T23:47:02.216Z,100981.88
2023-03-18T23:49:32.605Z,100988.41
2023-03-18T23:52:02.208Z,100989.31
2023-03-18T23:54:34.903Z,100978.72
2023-03-18T23:57:04.558Z,100989.50
2023-03-18T23:59:36.624Z,100990.38
